sensor_id;sensor_type;location;lat;lon;timestamp;temperature;humidity
42913;DHT22;50720;54.324;18.558;2023-07-13T00:00:36;15.00;99.90
42913;DHT22;50720;54.324;18.558;2023-07-13T00:03:26;15.00;99.90
42913;DHT22;50720;54.324;18.558;2023-07-13T00:06:00;14.90;99.90
42913;DHT22;50720;54.324;18.558;2023-07-13T00:08:31;15.00;99.90
42913;DHT22;50720;54.324;18.558;2023-07-13T00:11:02;14.90;99.90
42913;DHT22;50720;54.324;18.558;2023-07-13T00:13:34;14.90;99.90
42913;DHT22;50720;54.324;18.558;2023-07-13T00:16:06;14.80;99.90
42913;DHT22;50720;54.324;18.558;2023-07-13T00:18:37;14.80;99.90
42913;DHT22;50720;54.324;18.558;2023-07-13T00:21:07;14.80;99.90
42913;DHT22;50720;54.324;18.558;2023-07-13T00:23:38;14.80;99.90
42913;DHT22;50720;54.324;18.558;2023-07-13T00:26:10;14.70;99.90
42913;DHT22;50720;54.324;18.558;2023-07-13T00:28:42;14.70;99.90
42913;DHT22;50720;54.324;18.558;2023-07-13T00:31:13;14.70;99.90
42913;DHT22;50720;54.324;18.558;2023-07-13T00:33:44;14.70;99.90
42913;DHT22;50720;54.324;18.558;2023-07-13T00:38:45;14.60;99.90
42913;DHT22;50720;54.324;18.558;2023-07-13T00:41:15;14.60;99.90
42913;DHT22;50720;54.324;18.558;2023-07-13T00:43:46;14.50;99.90
42913;DHT22;50720;54.324;18.558;2023-07-13T00:46:23;14.60;99.90
42913;DHT22;50720;54.324;18.558;2023-07-13T00:48:54;14.50;99.90
42913;DHT22;50720;54.324;18.558;2023-07-13T00:51:32;14.50;99.90
42913;DHT22;50720;54.324;18.558;2023-07-13T00:54:06;14.50;99.90
42913;DHT22;50720;54.324;18.558;2023-07-13T00:56:39;14.60;99.90
42913;DHT22;50720;54.324;18.558;2023-07-13T01:01:41;14.50;99.90
42913;DHT22;50720;54.324;18.558;2023-07-13T01:04:12;14.50;99.90
42913;DHT22;50720;54.324;18.558;2023-07-13T01:09:13;14.50;99.90
42913;DHT22;50720;54.324;18.558;2023-07-13T01:11:44;14.50;99.90
42913;DHT22;50720;54.324;18.558;2023-07-13T01:14:16;14.50;99.90
42913;DHT22;50720;54.324;18.558;2023-07-13T01:16:46;14.50;99.90
42913;DHT22;50720;54.324;18.558;2023-07-13T01:19:25;14.50;99.90
42913;DHT22;50720;54.324;18.558;2023-07-13T01:26:59;14.50;99.90
42913;DHT22;50720;54.324;18.558;2023-07-13T01:29:31;14.40;99.90
42913;DHT22;50720;54.324;18.558;2023-07-13T01:32:01;14.40;99.90
42913;DHT22;50720;54.324;18.558;2023-07-13T01:37:00;14.40;99.90
42913;DHT22;50720;54.324;18.558;2023-07-13T01:39:32;14.40;99.90
42913;DHT22;50720;54.324;18.558;2023-07-13T01:42:02;14.40;99.90
42913;DHT22;50720;54.324;18.558;2023-07-13T01:44:32;14.30;99.90
42913;DHT22;50720;54.324;18.558;2023-07-13T01:47:02;14.30;99.90
42913;DHT22;50720;54.324;18.558;2023-07-13T01:49:32;14.30;99.90
42913;DHT22;50720;54.324;18.558;2023-07-13T01:52:02;14.30;99.90
42913;DHT22;50720;54.324;18.558;2023-07-13T01:57:03;14.20;99.90
42913;DHT22;50720;54.324;18.558;2023-07-13T01:59:33;14.20;99.90
42913;DHT22;50720;54.324;18.558;2023-07-13T02:04:33;14.20;99.90
42913;DHT22;50720;54.324;18.558;2023-07-13T02:07:04;14.20;99.90
42913;DHT22;50720;54.324;18.558;2023-07-13T02:09:35;14.20;99.90
42913;DHT22;50720;54.324;18.558;2023-07-13T02:12:06;14.20;99.90
42913;DHT22;50720;54.324;18.558;2023-07-13T02:14:36;14.20;99.90
42913;DHT22;50720;54.324;18.558;2023-07-13T02:17:06;14.20;99.90
42913;DHT22;50720;54.324;18.558;2023-07-13T02:22:06;14.20;99.90
42913;DHT22;50720;54.324;18.558;2023-07-13T02:24:37;14.20;99.90
42913;DHT22;50720;54.324;18.558;2023-07-13T02:27:07;14.30;99.90
42913;DHT22;50720;54.324;18.558;2023-07-13T02:29:37;14.30;99.90
42913;DHT22;50720;54.324;18.558;2023-07-13T02:32:07;14.30;99.90
42913;DHT22;50720;54.324;18.558;2023-07-13T02:37:06;14.20;99.90
42913;DHT22;50720;54.324;18.558;2023-07-13T02:39:38;14.30;99.90
42913;DHT22;50720;54.324;18.558;2023-07-13T02:44:37;14.40;99.90
42913;DHT22;50720;54.324;18.558;2023-07-13T02:47:07;14.40;99.90
42913;DHT22;50720;54.324;18.558;2023-07-13T02:52:07;14.90;99.90
42913;DHT22;50720;54.324;18.558;2023-07-13T02:54:38;15.00;99.90
42913;DHT22;50720;54.324;18.558;2023-07-13T02:59:38;15.20;99.90
42913;DHT22;50720;54.324;18.558;2023-07-13T03:02:08;15.30;99.90
42913;DHT22;50720;54.324;18.558;2023-07-13T03:04:38;15.30;99.90
42913;DHT22;50720;54.324;18.558;2023-07-13T03:07:08;15.40;99.90
42913;DHT22;50720;54.324;18.558;2023-07-13T03:09:40;15.50;99.90
42913;DHT22;50720;54.324;18.558;2023-07-13T03:12:09;15.50;99.90
42913;DHT22;50720;54.324;18.558;2023-07-13T03:14:39;15.60;99.90
42913;DHT22;50720;54.324;18.558;2023-07-13T03:17:09;15.60;99.90
42913;DHT22;50720;54.324;18.558;2023-07-13T03:19:40;15.60;99.90
42913;DHT22;50720;54.324;18.558;2023-07-13T03:22:10;15.70;99.90
42913;DHT22;50720;54.324;18.558;2023-07-13T03:24:41;15.70;99.90
42913;DHT22;50720;54.324;18.558;2023-07-13T03:27:11;15.80;99.90
42913;DHT22;50720;54.324;18.558;2023-07-13T03:29:41;15.90;99.90
42913;DHT22;50720;54.324;18.558;2023-07-13T03:32:10;15.90;99.90
42913;DHT22;50720;54.324;18.558;2023-07-13T03:34:40;16.00;99.90
42913;DHT22;50720;54.324;18.558;2023-07-13T03:37:10;16.00;99.90
42913;DHT22;50720;54.324;18.558;2023-07-13T03:39:42;16.10;99.90
42913;DHT22;50720;54.324;18.558;2023-07-13T03:42:11;16.20;99.90
42913;DHT22;50720;54.324;18.558;2023-07-13T03:44:42;16.20;99.90
42913;DHT22;50720;54.324;18.558;2023-07-13T03:47:17;16.30;99.90
42913;DHT22;50720;54.324;18.558;2023-07-13T03:49:47;16.30;99.90
42913;DHT22;50720;54.324;18.558;2023-07-13T03:52:17;16.30;99.90
42913;DHT22;50720;54.324;18.558;2023-07-13T03:54:49;16.50;99.90
42913;DHT22;50720;54.324;18.558;2023-07-13T03:57:19;16.60;99.90
42913;DHT22;50720;54.324;18.558;2023-07-13T03:59:49;16.60;99.90
42913;DHT22;50720;54.324;18.558;2023-07-13T04:04:49;16.70;99.90
42913;DHT22;50720;54.324;18.558;2023-07-13T04:09:50;16.90;99.90
42913;DHT22;50720;54.324;18.558;2023-07-13T04:12:19;16.90;99.90
42913;DHT22;50720;54.324;18.558;2023-07-13T04:14:49;17.10;99.90
42913;DHT22;50720;54.324;18.558;2023-07-13T04:17:19;17.10;99.90
42913;DHT22;50720;54.324;18.558;2023-07-13T04:19:49;17.20;99.90
42913;DHT22;50720;54.324;18.558;2023-07-13T04:22:19;17.30;99.90
42913;DHT22;50720;54.324;18.558;2023-07-13T04:24:50;17.30;99.90
42913;DHT22;50720;54.324;18.558;2023-07-13T04:27:20;17.40;99.90
42913;DHT22;50720;54.324;18.558;2023-07-13T04:29:53;17.40;99.90
42913;DHT22;50720;54.324;18.558;2023-07-13T04:32:22;17.40;99.90
42913;DHT22;50720;54.324;18.558;2023-07-13T04:37:23;17.50;99.90
42913;DHT22;50720;54.324;18.558;2023-07-13T04:39:55;17.60;99.90
42913;DHT22;50720;54.324;18.558;2023-07-13T04:42:26;17.70;99.90
42913;DHT22;50720;54.324;18.558;2023-07-13T04:44:56;17.80;99.90
42913;DHT22;50720;54.324;18.558;2023-07-13T04:47:25;17.80;99.90
42913;DHT22;50720;54.324;18.558;2023-07-13T04:49:55;17.90;99.90
42913;DHT22;50720;54.324;18.558;2023-07-13T04:54:57;18.00;99.90
42913;DHT22;50720;54.324;18.558;2023-07-13T04:57:26;18.00;99.90
42913;DHT22;50720;54.324;18.558;2023-07-13T04:59:56;18.10;99.90
42913;DHT22;50720;54.324;18.558;2023-07-13T05:02:28;18.20;99.90
42913;DHT22;50720;54.324;18.558;2023-07-13T05:05:00;18.20;99.90
42913;DHT22;50720;54.324;18.558;2023-07-13T05:07:31;18.30;99.90
42913;DHT22;50720;54.324;18.558;2023-07-13T05:10:04;18.40;99.90
42913;DHT22;50720;54.324;18.558;2023-07-13T05:12:34;18.50;99.90
42913;DHT22;50720;54.324;18.558;2023-07-13T05:15:05;18.60;99.90
42913;DHT22;50720;54.324;18.558;2023-07-13T05:17:35;18.70;99.90
42913;DHT22;50720;54.324;18.558;2023-07-13T05:20:08;18.70;99.90
42913;DHT22;50720;54.324;18.558;2023-07-13T05:22:38;18.80;99.90
42913;DHT22;50720;54.324;18.558;2023-07-13T05:25:10;18.70;99.90
42913;DHT22;50720;54.324;18.558;2023-07-13T05:27:40;18.80;99.90
42913;DHT22;50720;54.324;18.558;2023-07-13T05:30:10;18.90;99.90
42913;DHT22;50720;54.324;18.558;2023-07-13T05:32:40;19.00;99.90
42913;DHT22;50720;54.324;18.558;2023-07-13T05:35:10;19.10;99.90
42913;DHT22;50720;54.324;18.558;2023-07-13T05:37:40;19.20;99.90
42913;DHT22;50720;54.324;18.558;2023-07-13T05:40:11;19.20;99.90
42913;DHT22;50720;54.324;18.558;2023-07-13T05:42:41;19.20;99.90
42913;DHT22;50720;54.324;18.558;2023-07-13T05:45:11;19.30;99.90
42913;DHT22;50720;54.324;18.558;2023-07-13T05:50:12;19.50;99.90
42913;DHT22;50720;54.324;18.558;2023-07-13T05:52:43;19.50;99.90
42913;DHT22;50720;54.324;18.558;2023-07-13T05:55:15;19.60;99.90
42913;DHT22;50720;54.324;18.558;2023-07-13T05:57:45;19.60;99.90
42913;DHT22;50720;54.324;18.558;2023-07-13T06:00:15;19.70;99.90
42913;DHT22;50720;54.324;18.558;2023-07-13T06:02:45;19.60;99.90
42913;DHT22;50720;54.324;18.558;2023-07-13T06:05:15;19.60;99.90
42913;DHT22;50720;54.324;18.558;2023-07-13T06:07:44;19.70;99.90
42913;DHT22;50720;54.324;18.558;2023-07-13T06:10:16;19.80;99.90
42913;DHT22;50720;54.324;18.558;2023-07-13T06:12:46;19.90;99.90
42913;DHT22;50720;54.324;18.558;2023-07-13T06:15:16;20.00;99.90
42913;DHT22;50720;54.324;18.558;2023-07-13T06:17:45;20.10;99.90
42913;DHT22;50720;54.324;18.558;2023-07-13T06:20:16;20.10;99.90
42913;DHT22;50720;54.324;18.558;2023-07-13T06:22:45;20.20;99.90
42913;DHT22;50720;54.324;18.558;2023-07-13T06:25:17;20.30;99.90
42913;DHT22;50720;54.324;18.558;2023-07-13T06:30:17;20.30;99.90
42913;DHT22;50720;54.324;18.558;2023-07-13T06:37:47;20.10;99.90
42913;DHT22;50720;54.324;18.558;2023-07-13T06:40:18;20.20;99.90
42913;DHT22;50720;54.324;18.558;2023-07-13T06:42:48;20.30;99.90
42913;DHT22;50720;54.324;18.558;2023-07-13T06:45:18;20.30;99.90
42913;DHT22;50720;54.324;18.558;2023-07-13T06:47:47;20.30;99.90
42913;DHT22;50720;54.324;18.558;2023-07-13T06:50:18;20.40;99.90
42913;DHT22;50720;54.324;18.558;2023-07-13T06:52:48;20.50;99.90
42913;DHT22;50720;54.324;18.558;2023-07-13T06:55:19;20.50;99.90
42913;DHT22;50720;54.324;18.558;2023-07-13T06:57:49;20.70;99.90
42913;DHT22;50720;54.324;18.558;2023-07-13T07:00:19;20.80;99.90
42913;DHT22;50720;54.324;18.558;2023-07-13T07:02:50;20.90;99.90
42913;DHT22;50720;54.324;18.558;2023-07-13T07:05:22;20.90;99.90
42913;DHT22;50720;54.324;18.558;2023-07-13T07:07:53;20.90;99.90
42913;DHT22;50720;54.324;18.558;2023-07-13T07:10:26;21.00;99.90
42913;DHT22;50720;54.324;18.558;2023-07-13T07:12:55;20.90;99.90
42913;DHT22;50720;54.324;18.558;2023-07-13T07:15:25;21.00;99.90
42913;DHT22;50720;54.324;18.558;2023-07-13T07:17:56;20.90;99.90
42913;DHT22;50720;54.324;18.558;2023-07-13T07:20:26;20.90;99.90
42913;DHT22;50720;54.324;18.558;2023-07-13T07:22:55;21.10;99.90
42913;DHT22;50720;54.324;18.558;2023-07-13T07:25:27;21.10;99.90
42913;DHT22;50720;54.324;18.558;2023-07-13T07:27:59;21.20;99.90
42913;DHT22;50720;54.324;18.558;2023-07-13T07:30:32;21.20;99.90
42913;DHT22;50720;54.324;18.558;2023-07-13T07:33:05;21.30;99.90
42913;DHT22;50720;54.324;18.558;2023-07-13T07:35:35;21.50;99.90
42913;DHT22;50720;54.324;18.558;2023-07-13T07:38:25;21.50;99.90
42913;DHT22;50720;54.324;18.558;2023-07-13T07:40:56;21.40;99.90
42913;DHT22;50720;54.324;18.558;2023-07-13T07:43:29;21.40;99.90
42913;DHT22;50720;54.324;18.558;2023-07-13T07:45:59;21.30;99.90
42913;DHT22;50720;54.324;18.558;2023-07-13T07:48:30;21.30;99.90
42913;DHT22;50720;54.324;18.558;2023-07-13T07:51:00;21.30;99.90
42913;DHT22;50720;54.324;18.558;2023-07-13T07:53:30;21.70;99.90
42913;DHT22;50720;54.324;18.558;2023-07-13T07:56:03;21.70;99.90
42913;DHT22;50720;54.324;18.558;2023-07-13T07:58:52;21.80;99.90
42913;DHT22;50720;54.324;18.558;2023-07-13T08:01:26;21.60;99.90
42913;DHT22;50720;54.324;18.558;2023-07-13T08:03:58;21.50;99.90
42913;DHT22;50720;54.324;18.558;2023-07-13T08:06:32;21.70;99.90
42913;DHT22;50720;54.324;18.558;2023-07-13T08:09:04;21.80;99.90
42913;DHT22;50720;54.324;18.558;2023-07-13T08:11:37;21.70;99.90
42913;DHT22;50720;54.324;18.558;2023-07-13T08:14:10;21.60;99.90
42913;DHT22;50720;54.324;18.558;2023-07-13T08:16:40;21.60;99.90
42913;DHT22;50720;54.324;18.558;2023-07-13T08:19:10;21.60;99.90
42913;DHT22;50720;54.324;18.558;2023-07-13T08:21:40;21.70;99.90
42913;DHT22;50720;54.324;18.558;2023-07-13T08:24:11;21.70;99.90
42913;DHT22;50720;54.324;18.558;2023-07-13T08:26:42;21.80;99.90
42913;DHT22;50720;54.324;18.558;2023-07-13T08:29:12;22.00;99.90
42913;DHT22;50720;54.324;18.558;2023-07-13T08:31:42;22.00;99.90
42913;DHT22;50720;54.324;18.558;2023-07-13T08:34:12;22.00;99.90
42913;DHT22;50720;54.324;18.558;2023-07-13T08:36:44;22.10;99.90
42913;DHT22;50720;54.324;18.558;2023-07-13T08:39:14;22.10;99.90
42913;DHT22;50720;54.324;18.558;2023-07-13T08:41:47;22.10;99.90
42913;DHT22;50720;54.324;18.558;2023-07-13T08:44:27;22.20;99.90
42913;DHT22;50720;54.324;18.558;2023-07-13T08:47:01;22.20;99.90
42913;DHT22;50720;54.324;18.558;2023-07-13T08:49:32;22.30;99.90
42913;DHT22;50720;54.324;18.558;2023-07-13T08:52:08;22.50;99.90
42913;DHT22;50720;54.324;18.558;2023-07-13T08:54:45;22.50;99.90
42913;DHT22;50720;54.324;18.558;2023-07-13T08:57:20;22.60;99.90
42913;DHT22;50720;54.324;18.558;2023-07-13T08:59:50;22.30;99.90
42913;DHT22;50720;54.324;18.558;2023-07-13T09:02:25;22.30;99.90
42913;DHT22;50720;54.324;18.558;2023-07-13T09:04:58;22.20;99.90
42913;DHT22;50720;54.324;18.558;2023-07-13T09:07:41;22.30;99.90
42913;DHT22;50720;54.324;18.558;2023-07-13T09:10:16;22.40;99.90
42913;DHT22;50720;54.324;18.558;2023-07-13T09:12:56;22.60;99.90
42913;DHT22;50720;54.324;18.558;2023-07-13T09:15:30;22.70;99.90
42913;DHT22;50720;54.324;18.558;2023-07-13T09:18:04;23.00;99.90
42913;DHT22;50720;54.324;18.558;2023-07-13T09:20:39;23.20;99.90
42913;DHT22;50720;54.324;18.558;2023-07-13T09:23:15;23.40;99.90
42913;DHT22;50720;54.324;18.558;2023-07-13T09:25:48;23.40;99.90
42913;DHT22;50720;54.324;18.558;2023-07-13T09:28:26;23.50;99.90
42913;DHT22;50720;54.324;18.558;2023-07-13T09:31:03;23.50;99.90
42913;DHT22;50720;54.324;18.558;2023-07-13T09:33:35;23.50;99.90
42913;DHT22;50720;54.324;18.558;2023-07-13T09:36:18;23.60;99.90
42913;DHT22;50720;54.324;18.558;2023-07-13T09:41:41;23.80;99.90
42913;DHT22;50720;54.324;18.558;2023-07-13T09:44:17;23.80;99.90
42913;DHT22;50720;54.324;18.558;2023-07-13T09:46:53;24.00;99.90
42913;DHT22;50720;54.324;18.558;2023-07-13T09:49:24;23.90;99.90
42913;DHT22;50720;54.324;18.558;2023-07-13T09:51:59;23.80;99.90
42913;DHT22;50720;54.324;18.558;2023-07-13T09:54:32;23.70;99.90
42913;DHT22;50720;54.324;18.558;2023-07-13T09:57:04;23.60;99.90
42913;DHT22;50720;54.324;18.558;2023-07-13T09:59:44;23.60;99.90
42913;DHT22;50720;54.324;18.558;2023-07-13T10:02:33;23.30;99.90
42913;DHT22;50720;54.324;18.558;2023-07-13T10:05:05;23.20;99.90
42913;DHT22;50720;54.324;18.558;2023-07-13T10:07:39;23.20;99.90
42913;DHT22;50720;54.324;18.558;2023-07-13T10:10:15;23.50;99.90
42913;DHT22;50720;54.324;18.558;2023-07-13T10:12:45;23.70;99.90
42913;DHT22;50720;54.324;18.558;2023-07-13T10:15:19;24.00;99.90
42913;DHT22;50720;54.324;18.558;2023-07-13T10:17:53;24.20;99.90
42913;DHT22;50720;54.324;18.558;2023-07-13T10:20:27;24.30;99.90
42913;DHT22;50720;54.324;18.558;2023-07-13T10:23:00;24.50;99.90
42913;DHT22;50720;54.324;18.558;2023-07-13T10:25:34;24.50;99.90
42913;DHT22;50720;54.324;18.558;2023-07-13T10:28:30;24.30;99.90
42913;DHT22;50720;54.324;18.558;2023-07-13T10:31:12;23.20;99.90
42913;DHT22;50720;54.324;18.558;2023-07-13T10:33:43;22.50;99.90
42913;DHT22;50720;54.324;18.558;2023-07-13T10:36:17;21.70;99.90
42913;DHT22;50720;54.324;18.558;2023-07-13T10:38:51;21.50;99.90
42913;DHT22;50720;54.324;18.558;2023-07-13T10:41:24;21.30;99.90
42913;DHT22;50720;54.324;18.558;2023-07-13T10:43:56;21.30;99.90
42913;DHT22;50720;54.324;18.558;2023-07-13T10:46:29;21.60;99.90
42913;DHT22;50720;54.324;18.558;2023-07-13T10:49:02;22.00;99.90
42913;DHT22;50720;54.324;18.558;2023-07-13T10:51:34;22.40;99.90
42913;DHT22;50720;54.324;18.558;2023-07-13T10:54:22;22.90;99.90
42913;DHT22;50720;54.324;18.558;2023-07-13T10:57:07;23.00;99.90
42913;DHT22;50720;54.324;18.558;2023-07-13T10:59:37;24.20;99.90
42913;DHT22;50720;54.324;18.558;2023-07-13T11:02:21;24.20;99.90
42913;DHT22;50720;54.324;18.558;2023-07-13T11:04:53;24.30;99.90
42913;DHT22;50720;54.324;18.558;2023-07-13T11:07:26;24.40;99.90
42913;DHT22;50720;54.324;18.558;2023-07-13T11:09:57;24.20;99.90
42913;DHT22;50720;54.324;18.558;2023-07-13T11:15:32;25.20;99.90
42913;DHT22;50720;54.324;18.558;2023-07-13T11:18:22;25.20;99.90
42913;DHT22;50720;54.324;18.558;2023-07-13T11:21:14;25.00;99.90
42913;DHT22;50720;54.324;18.558;2023-07-13T11:24:03;24.80;99.90
42913;DHT22;50720;54.324;18.558;2023-07-13T11:26:41;24.60;99.90
42913;DHT22;50720;54.324;18.558;2023-07-13T11:29:25;24.40;99.90
42913;DHT22;50720;54.324;18.558;2023-07-13T11:31:58;24.20;99.90
42913;DHT22;50720;54.324;18.558;2023-07-13T11:34:33;24.10;99.90
42913;DHT22;50720;54.324;18.558;2023-07-13T11:37:08;23.90;99.90
42913;DHT22;50720;54.324;18.558;2023-07-13T11:39:44;23.70;99.90
42913;DHT22;50720;54.324;18.558;2023-07-13T11:42:18;23.50;99.90
42913;DHT22;50720;54.324;18.558;2023-07-13T11:44:50;23.60;99.90
42913;DHT22;50720;54.324;18.558;2023-07-13T11:47:40;23.50;99.90
42913;DHT22;50720;54.324;18.558;2023-07-13T11:50:20;23.50;99.90
42913;DHT22;50720;54.324;18.558;2023-07-13T11:52:52;23.80;99.90
42913;DHT22;50720;54.324;18.558;2023-07-13T11:55:24;23.90;99.90
42913;DHT22;50720;54.324;18.558;2023-07-13T11:57:57;24.00;99.90
42913;DHT22;50720;54.324;18.558;2023-07-13T12:00:29;24.20;99.90
42913;DHT22;50720;54.324;18.558;2023-07-13T12:03:02;24.70;99.90
42913;DHT22;50720;54.324;18.558;2023-07-13T12:05:35;25.20;99.90
42913;DHT22;50720;54.324;18.558;2023-07-13T12:08:09;25.70;99.90
42913;DHT22;50720;54.324;18.558;2023-07-13T12:10:58;25.80;99.90
42913;DHT22;50720;54.324;18.558;2023-07-13T12:13:28;26.70;99.90
42913;DHT22;50720;54.324;18.558;2023-07-13T12:15:58;28.10;99.90
42913;DHT22;50720;54.324;18.558;2023-07-13T12:18:30;28.00;99.90
42913;DHT22;50720;54.324;18.558;2023-07-13T12:21:03;28.90;99.90
42913;DHT22;50720;54.324;18.558;2023-07-13T12:23:35;28.90;99.90
42913;DHT22;50720;54.324;18.558;2023-07-13T12:26:06;28.70;99.90
42913;DHT22;50720;54.324;18.558;2023-07-13T12:28:39;28.60;99.90
42913;DHT22;50720;54.324;18.558;2023-07-13T12:31:25;27.40;99.90
42913;DHT22;50720;54.324;18.558;2023-07-13T12:34:00;27.40;99.90
42913;DHT22;50720;54.324;18.558;2023-07-13T12:36:35;26.80;99.90
42913;DHT22;50720;54.324;18.558;2023-07-13T12:39:14;26.20;99.90
42913;DHT22;50720;54.324;18.558;2023-07-13T12:41:45;25.90;99.90
42913;DHT22;50720;54.324;18.558;2023-07-13T12:44:15;25.60;99.90
42913;DHT22;50720;54.324;18.558;2023-07-13T12:46:54;25.30;99.90
42913;DHT22;50720;54.324;18.558;2023-07-13T12:49:28;25.10;99.90
42913;DHT22;50720;54.324;18.558;2023-07-13T12:52:01;24.80;99.90
42913;DHT22;50720;54.324;18.558;2023-07-13T12:54:31;24.30;99.90
42913;DHT22;50720;54.324;18.558;2023-07-13T12:57:02;23.60;99.90
42913;DHT22;50720;54.324;18.558;2023-07-13T12:59:37;23.50;99.90
42913;DHT22;50720;54.324;18.558;2023-07-13T13:02:25;23.50;99.90
42913;DHT22;50720;54.324;18.558;2023-07-13T13:04:56;23.70;99.90
42913;DHT22;50720;54.324;18.558;2023-07-13T13:07:28;24.20;99.90
42913;DHT22;50720;54.324;18.558;2023-07-13T13:09:58;24.30;99.90
42913;DHT22;50720;54.324;18.558;2023-07-13T13:12:28;24.20;99.90
42913;DHT22;50720;54.324;18.558;2023-07-13T13:14:57;24.20;99.90
42913;DHT22;50720;54.324;18.558;2023-07-13T13:17:30;24.50;99.90
42913;DHT22;50720;54.324;18.558;2023-07-13T13:20:00;24.90;99.90
42913;DHT22;50720;54.324;18.558;2023-07-13T13:22:32;25.20;99.90
42913;DHT22;50720;54.324;18.558;2023-07-13T13:25:02;25.30;99.90
42913;DHT22;50720;54.324;18.558;2023-07-13T13:27:34;25.80;99.90
42913;DHT22;50720;54.324;18.558;2023-07-13T13:30:07;26.40;99.90
42913;DHT22;50720;54.324;18.558;2023-07-13T13:32:42;26.90;99.90
42913;DHT22;50720;54.324;18.558;2023-07-13T13:35:14;26.80;99.90
42913;DHT22;50720;54.324;18.558;2023-07-13T13:37:46;26.60;99.90
42913;DHT22;50720;54.324;18.558;2023-07-13T13:40:19;26.30;99.90
42913;DHT22;50720;54.324;18.558;2023-07-13T13:42:51;25.90;99.90
42913;DHT22;50720;54.324;18.558;2023-07-13T13:45:22;25.40;99.90
42913;DHT22;50720;54.324;18.558;2023-07-13T13:47:53;25.60;99.90
42913;DHT22;50720;54.324;18.558;2023-07-13T13:50:24;25.60;99.90
42913;DHT22;50720;54.324;18.558;2023-07-13T13:52:55;26.00;99.90
42913;DHT22;50720;54.324;18.558;2023-07-13T13:55:25;27.00;99.90
42913;DHT22;50720;54.324;18.558;2023-07-13T13:57:55;26.90;99.90
42913;DHT22;50720;54.324;18.558;2023-07-13T14:00:25;26.80;99.90
42913;DHT22;50720;54.324;18.558;2023-07-13T14:02:55;26.30;99.90
42913;DHT22;50720;54.324;18.558;2023-07-13T14:05:26;26.00;99.90
42913;DHT22;50720;54.324;18.558;2023-07-13T14:07:57;25.30;99.90
42913;DHT22;50720;54.324;18.558;2023-07-13T14:10:27;24.60;99.90
42913;DHT22;50720;54.324;18.558;2023-07-13T14:12:57;24.20;99.90
42913;DHT22;50720;54.324;18.558;2023-07-13T14:15:29;24.10;99.90
42913;DHT22;50720;54.324;18.558;2023-07-13T14:18:00;23.80;99.90
42913;DHT22;50720;54.324;18.558;2023-07-13T14:20:30;23.70;99.90
42913;DHT22;50720;54.324;18.558;2023-07-13T14:23:01;23.80;99.90
42913;DHT22;50720;54.324;18.558;2023-07-13T14:25:31;23.90;99.90
42913;DHT22;50720;54.324;18.558;2023-07-13T14:28:17;23.50;99.90
42913;DHT22;50720;54.324;18.558;2023-07-13T14:30:48;23.50;99.90
42913;DHT22;50720;54.324;18.558;2023-07-13T14:33:19;23.20;99.90
42913;DHT22;50720;54.324;18.558;2023-07-13T14:35:49;23.10;99.90
42913;DHT22;50720;54.324;18.558;2023-07-13T14:38:22;23.80;99.90
42913;DHT22;50720;54.324;18.558;2023-07-13T14:40:51;24.40;99.90
42913;DHT22;50720;54.324;18.558;2023-07-13T14:43:21;24.90;99.90
42913;DHT22;50720;54.324;18.558;2023-07-13T14:45:52;25.60;99.90
42913;DHT22;50720;54.324;18.558;2023-07-13T14:48:24;25.70;99.90
42913;DHT22;50720;54.324;18.558;2023-07-13T14:50:56;24.90;99.90
42913;DHT22;50720;54.324;18.558;2023-07-13T14:53:28;24.50;99.90
42913;DHT22;50720;54.324;18.558;2023-07-13T14:55:58;24.10;99.90
42913;DHT22;50720;54.324;18.558;2023-07-13T14:58:28;24.10;99.90
42913;DHT22;50720;54.324;18.558;2023-07-13T15:01:00;24.80;99.90
42913;DHT22;50720;54.324;18.558;2023-07-13T15:03:29;24.70;99.90
42913;DHT22;50720;54.324;18.558;2023-07-13T15:05:59;25.70;99.90
42913;DHT22;50720;54.324;18.558;2023-07-13T15:08:31;25.70;99.90
42913;DHT22;50720;54.324;18.558;2023-07-13T15:11:02;25.90;99.90
42913;DHT22;50720;54.324;18.558;2023-07-13T15:13:33;25.90;99.90
42913;DHT22;50720;54.324;18.558;2023-07-13T15:16:03;25.40;99.90
42913;DHT22;50720;54.324;18.558;2023-07-13T15:18:33;25.30;99.90
42913;DHT22;50720;54.324;18.558;2023-07-13T15:21:03;24.70;99.90
42913;DHT22;50720;54.324;18.558;2023-07-13T15:23:37;24.70;99.90
42913;DHT22;50720;54.324;18.558;2023-07-13T15:26:11;24.70;99.90
42913;DHT22;50720;54.324;18.558;2023-07-13T15:28:43;24.70;99.90
42913;DHT22;50720;54.324;18.558;2023-07-13T15:31:19;25.20;99.90
42913;DHT22;50720;54.324;18.558;2023-07-13T15:33:51;25.30;99.90
42913;DHT22;50720;54.324;18.558;2023-07-13T15:36:21;24.70;99.90
42913;DHT22;50720;54.324;18.558;2023-07-13T15:38:54;24.70;99.90
42913;DHT22;50720;54.324;18.558;2023-07-13T15:41:27;24.80;99.90
42913;DHT22;50720;54.324;18.558;2023-07-13T15:43:58;25.00;99.90
42913;DHT22;50720;54.324;18.558;2023-07-13T15:46:28;25.20;99.90
42913;DHT22;50720;54.324;18.558;2023-07-13T15:48:58;25.40;99.90
42913;DHT22;50720;54.324;18.558;2023-07-13T15:51:29;25.80;99.90
42913;DHT22;50720;54.324;18.558;2023-07-13T15:54:03;25.80;99.90
42913;DHT22;50720;54.324;18.558;2023-07-13T15:56:35;26.40;99.90
42913;DHT22;50720;54.324;18.558;2023-07-13T15:59:07;26.60;99.90
42913;DHT22;50720;54.324;18.558;2023-07-13T16:01:39;27.20;99.90
42913;DHT22;50720;54.324;18.558;2023-07-13T16:04:10;27.20;99.90
42913;DHT22;50720;54.324;18.558;2023-07-13T16:06:40;27.20;99.90
42913;DHT22;50720;54.324;18.558;2023-07-13T16:09:18;27.60;99.90
42913;DHT22;50720;54.324;18.558;2023-07-13T16:11:49;27.40;99.90
42913;DHT22;50720;54.324;18.558;2023-07-13T16:14:20;27.50;99.90
42913;DHT22;50720;54.324;18.558;2023-07-13T16:16:52;27.40;99.90
42913;DHT22;50720;54.324;18.558;2023-07-13T16:19:24;27.10;99.90
42913;DHT22;50720;54.324;18.558;2023-07-13T16:21:57;27.30;99.70
42913;DHT22;50720;54.324;18.558;2023-07-13T16:24:30;26.70;99.20
42913;DHT22;50720;54.324;18.558;2023-07-13T16:27:00;26.70;99.40
42913;DHT22;50720;54.324;18.558;2023-07-13T16:29:33;26.50;99.90
42913;DHT22;50720;54.324;18.558;2023-07-13T16:32:05;26.60;99.90
42913;DHT22;50720;54.324;18.558;2023-07-13T16:34:40;26.90;99.90
42913;DHT22;50720;54.324;18.558;2023-07-13T16:37:14;26.90;98.90
42913;DHT22;50720;54.324;18.558;2023-07-13T16:39:48;26.90;99.20
42913;DHT22;50720;54.324;18.558;2023-07-13T16:42:21;26.60;99.30
42913;DHT22;50720;54.324;18.558;2023-07-13T16:44:51;25.90;99.90